sensor_id;sensor_type;location;lat;lon;timestamp;temperature;humidity
16102;DHT22;56411;52.964;10.540;2023-05-10T00:01:12;11.70;99.90
16102;DHT22;56411;52.964;10.540;2023-05-10T00:03:41;11.70;99.90
16102;DHT22;56411;52.964;10.540;2023-05-10T00:06:08;11.60;99.90
16102;DHT22;56411;52.964;10.540;2023-05-10T00:08:34;11.60;99.90
16102;DHT22;56411;52.964;10.540;2023-05-10T00:11:02;11.60;99.90
16102;DHT22;56411;52.964;10.540;2023-05-10T00:13:29;11.50;99.90
16102;DHT22;56411;52.964;10.540;2023-05-10T00:15:55;11.50;99.90
16102;DHT22;56411;52.964;10.540;2023-05-10T00:18:22;11.50;99.90
16102;DHT22;56411;52.964;10.540;2023-05-10T00:20:51;11.40;99.90
16102;DHT22;56411;52.964;10.540;2023-05-10T00:23:18;11.40;99.90
16102;DHT22;56411;52.964;10.540;2023-05-10T00:25:45;11.30;99.90
16102;DHT22;56411;52.964;10.540;2023-05-10T00:28:12;11.30;99.90
16102;DHT22;56411;52.964;10.540;2023-05-10T00:30:39;11.30;99.90
16102;DHT22;56411;52.964;10.540;2023-05-10T00:33:06;11.30;99.90
16102;DHT22;56411;52.964;10.540;2023-05-10T00:35:33;11.30;99.90
16102;DHT22;56411;52.964;10.540;2023-05-10T00:38:01;11.20;99.90
16102;DHT22;56411;52.964;10.540;2023-05-10T00:40:29;11.20;99.90
16102;DHT22;56411;52.964;10.540;2023-05-10T00:42:56;11.20;99.90
16102;DHT22;56411;52.964;10.540;2023-05-10T00:45:23;11.20;99.90
16102;DHT22;56411;52.964;10.540;2023-05-10T00:47:51;11.20;99.90
16102;DHT22;56411;52.964;10.540;2023-05-10T00:50:20;11.20;99.90
16102;DHT22;56411;52.964;10.540;2023-05-10T00:52:47;11.10;99.90
16102;DHT22;56411;52.964;10.540;2023-05-10T00:55:16;11.10;99.90
16102;DHT22;56411;52.964;10.540;2023-05-10T00:57:43;11.10;99.90
16102;DHT22;56411;52.964;10.540;2023-05-10T01:00:12;11.10;99.90
16102;DHT22;56411;52.964;10.540;2023-05-10T01:02:44;11.00;99.90
16102;DHT22;56411;52.964;10.540;2023-05-10T01:05:11;11.00;99.90
16102;DHT22;56411;52.964;10.540;2023-05-10T01:07:38;10.90;99.90
16102;DHT22;56411;52.964;10.540;2023-05-10T01:10:07;10.80;99.90
16102;DHT22;56411;52.964;10.540;2023-05-10T01:12:39;10.90;99.90
16102;DHT22;56411;52.964;10.540;2023-05-10T01:15:07;10.90;99.90
16102;DHT22;56411;52.964;10.540;2023-05-10T01:17:35;11.00;99.90
16102;DHT22;56411;52.964;10.540;2023-05-10T01:20:05;10.90;99.90
16102;DHT22;56411;52.964;10.540;2023-05-10T01:22:49;10.90;99.90
16102;DHT22;56411;52.964;10.540;2023-05-10T01:25:38;10.80;99.90
16102;DHT22;56411;52.964;10.540;2023-05-10T01:28:29;10.70;99.90
16102;DHT22;56411;52.964;10.540;2023-05-10T01:31:14;10.70;99.90
16102;DHT22;56411;52.964;10.540;2023-05-10T01:33:51;10.60;99.90
16102;DHT22;56411;52.964;10.540;2023-05-10T01:36:23;10.50;99.90
16102;DHT22;56411;52.964;10.540;2023-05-10T01:38:57;10.50;99.90
16102;DHT22;56411;52.964;10.540;2023-05-10T01:41:30;10.50;99.90
16102;DHT22;56411;52.964;10.540;2023-05-10T01:44:03;10.50;99.90
16102;DHT22;56411;52.964;10.540;2023-05-10T01:46:35;10.50;99.90
16102;DHT22;56411;52.964;10.540;2023-05-10T01:49:08;10.50;99.90
16102;DHT22;56411;52.964;10.540;2023-05-10T01:51:39;10.40;99.90
16102;DHT22;56411;52.964;10.540;2023-05-10T01:54:08;10.50;99.90
16102;DHT22;56411;52.964;10.540;2023-05-10T01:56:38;10.30;99.90
16102;DHT22;56411;52.964;10.540;2023-05-10T01:59:08;10.20;99.90
16102;DHT22;56411;52.964;10.540;2023-05-10T02:01:38;10.10;99.90
16102;DHT22;56411;52.964;10.540;2023-05-10T02:04:08;10.10;99.90
16102;DHT22;56411;52.964;10.540;2023-05-10T02:06:36;10.10;99.90
16102;DHT22;56411;52.964;10.540;2023-05-10T02:09:05;10.10;99.90
16102;DHT22;56411;52.964;10.540;2023-05-10T02:11:33;10.00;99.90
16102;DHT22;56411;52.964;10.540;2023-05-10T02:14:01;10.00;99.90
16102;DHT22;56411;52.964;10.540;2023-05-10T02:16:30;10.00;99.90
16102;DHT22;56411;52.964;10.540;2023-05-10T02:18:59;10.00;99.90
16102;DHT22;56411;52.964;10.540;2023-05-10T02:21:29;10.00;99.90
16102;DHT22;56411;52.964;10.540;2023-05-10T02:23:57;10.00;99.90
16102;DHT22;56411;52.964;10.540;2023-05-10T02:26:26;9.90;99.90
16102;DHT22;56411;52.964;10.540;2023-05-10T02:28:54;9.80;99.90
16102;DHT22;56411;52.964;10.540;2023-05-10T02:31:23;9.90;99.90
16102;DHT22;56411;52.964;10.540;2023-05-10T02:33:51;9.80;99.90
16102;DHT22;56411;52.964;10.540;2023-05-10T02:36:20;9.90;99.90
16102;DHT22;56411;52.964;10.540;2023-05-10T02:38:50;9.90;99.90
16102;DHT22;56411;52.964;10.540;2023-05-10T02:41:19;9.90;99.90
16102;DHT22;56411;52.964;10.540;2023-05-10T02:43:50;9.80;99.90
16102;DHT22;56411;52.964;10.540;2023-05-10T02:46:17;9.80;99.90
16102;DHT22;56411;52.964;10.540;2023-05-10T02:48:44;9.80;99.90
16102;DHT22;56411;52.964;10.540;2023-05-10T02:51:13;9.80;99.90
16102;DHT22;56411;52.964;10.540;2023-05-10T02:53:44;9.80;99.90
16102;DHT22;56411;52.964;10.540;2023-05-10T02:56:19;9.80;99.90
16102;DHT22;56411;52.964;10.540;2023-05-10T02:58:47;9.90;99.90
16102;DHT22;56411;52.964;10.540;2023-05-10T03:01:14;9.90;99.90
16102;DHT22;56411;52.964;10.540;2023-05-10T03:03:42;9.90;99.90
16102;DHT22;56411;52.964;10.540;2023-05-10T03:06:09;9.80;99.90
16102;DHT22;56411;52.964;10.540;2023-05-10T03:08:36;9.90;99.90
16102;DHT22;56411;52.964;10.540;2023-05-10T03:11:15;9.90;99.90
16102;DHT22;56411;52.964;10.540;2023-05-10T03:13:48;9.90;99.90
16102;DHT22;56411;52.964;10.540;2023-05-10T03:16:20;9.90;99.90
16102;DHT22;56411;52.964;10.540;2023-05-10T03:18:54;10.00;99.90
16102;DHT22;56411;52.964;10.540;2023-05-10T03:21:26;10.00;99.90
16102;DHT22;56411;52.964;10.540;2023-05-10T03:23:59;10.00;99.90
16102;DHT22;56411;52.964;10.540;2023-05-10T03:26:29;10.00;99.90
16102;DHT22;56411;52.964;10.540;2023-05-10T03:28:57;10.00;99.90
16102;DHT22;56411;52.964;10.540;2023-05-10T03:31:25;10.00;99.90
16102;DHT22;56411;52.964;10.540;2023-05-10T03:33:53;10.10;99.90
16102;DHT22;56411;52.964;10.540;2023-05-10T03:36:20;10.10;99.90
16102;DHT22;56411;52.964;10.540;2023-05-10T03:38:47;10.10;99.90
16102;DHT22;56411;52.964;10.540;2023-05-10T03:41:14;10.20;99.90
16102;DHT22;56411;52.964;10.540;2023-05-10T03:43:42;10.20;99.90
16102;DHT22;56411;52.964;10.540;2023-05-10T03:46:09;10.20;99.90
16102;DHT22;56411;52.964;10.540;2023-05-10T03:48:36;10.20;99.90
16102;DHT22;56411;52.964;10.540;2023-05-10T03:51:03;10.20;99.90
16102;DHT22;56411;52.964;10.540;2023-05-10T03:53:30;10.20;99.90
16102;DHT22;56411;52.964;10.540;2023-05-10T03:55:57;10.20;99.90
16102;DHT22;56411;52.964;10.540;2023-05-10T03:58:24;10.20;99.90
16102;DHT22;56411;52.964;10.540;2023-05-10T04:00:52;10.20;99.90
16102;DHT22;56411;52.964;10.540;2023-05-10T04:03:19;10.20;99.90
16102;DHT22;56411;52.964;10.540;2023-05-10T04:05:46;10.20;99.90
16102;DHT22;56411;52.964;10.540;2023-05-10T04:08:13;10.20;99.90
16102;DHT22;56411;52.964;10.540;2023-05-10T04:10:41;10.20;99.90
16102;DHT22;56411;52.964;10.540;2023-05-10T04:13:09;10.30;99.90
16102;DHT22;56411;52.964;10.540;2023-05-10T04:15:36;10.30;99.90
16102;DHT22;56411;52.964;10.540;2023-05-10T04:18:05;10.30;99.90
16102;DHT22;56411;52.964;10.540;2023-05-10T04:20:32;10.30;99.90
16102;DHT22;56411;52.964;10.540;2023-05-10T04:23:00;10.40;99.90
16102;DHT22;56411;52.964;10.540;2023-05-10T04:25:27;10.40;99.90
16102;DHT22;56411;52.964;10.540;2023-05-10T04:27:54;10.50;99.90
16102;DHT22;56411;52.964;10.540;2023-05-10T04:30:21;10.50;99.90
16102;DHT22;56411;52.964;10.540;2023-05-10T04:32:48;10.50;99.90
16102;DHT22;56411;52.964;10.540;2023-05-10T04:35:17;10.50;99.90
16102;DHT22;56411;52.964;10.540;2023-05-10T04:37:44;10.50;99.90
16102;DHT22;56411;52.964;10.540;2023-05-10T04:40:11;10.60;99.90
16102;DHT22;56411;52.964;10.540;2023-05-10T04:42:43;10.70;99.90
16102;DHT22;56411;52.964;10.540;2023-05-10T04:45:11;10.70;99.90
16102;DHT22;56411;52.964;10.540;2023-05-10T04:47:38;10.80;99.90
16102;DHT22;56411;52.964;10.540;2023-05-10T04:50:06;10.90;99.90
16102;DHT22;56411;52.964;10.540;2023-05-10T04:52:34;11.00;99.90
16102;DHT22;56411;52.964;10.540;2023-05-10T04:55:02;11.00;99.90
16102;DHT22;56411;52.964;10.540;2023-05-10T04:57:29;11.10;99.90
16102;DHT22;56411;52.964;10.540;2023-05-10T04:59:56;11.30;99.90
16102;DHT22;56411;52.964;10.540;2023-05-10T05:02:23;11.40;99.90
16102;DHT22;56411;52.964;10.540;2023-05-10T05:04:50;11.50;99.90
16102;DHT22;56411;52.964;10.540;2023-05-10T05:07:17;11.60;99.90
16102;DHT22;56411;52.964;10.540;2023-05-10T05:09:46;11.70;99.90
16102;DHT22;56411;52.964;10.540;2023-05-10T05:12:13;11.90;99.90
16102;DHT22;56411;52.964;10.540;2023-05-10T05:14:40;11.90;99.90
16102;DHT22;56411;52.964;10.540;2023-05-10T05:17:07;12.10;99.90
16102;DHT22;56411;52.964;10.540;2023-05-10T05:19:34;12.20;99.90
16102;DHT22;56411;52.964;10.540;2023-05-10T05:22:04;12.30;99.90
16102;DHT22;56411;52.964;10.540;2023-05-10T05:24:35;12.50;99.90
16102;DHT22;56411;52.964;10.540;2023-05-10T05:27:05;12.50;99.90
16102;DHT22;56411;52.964;10.540;2023-05-10T05:29:32;12.60;99.90
16102;DHT22;56411;52.964;10.540;2023-05-10T05:31:59;12.70;99.90
16102;DHT22;56411;52.964;10.540;2023-05-10T05:34:26;12.90;99.90
16102;DHT22;56411;52.964;10.540;2023-05-10T05:36:53;13.10;99.90
16102;DHT22;56411;52.964;10.540;2023-05-10T05:39:21;13.20;99.90
16102;DHT22;56411;52.964;10.540;2023-05-10T05:41:48;13.40;99.90
16102;DHT22;56411;52.964;10.540;2023-05-10T05:44:16;13.50;99.90
16102;DHT22;56411;52.964;10.540;2023-05-10T05:46:43;13.60;99.90
16102;DHT22;56411;52.964;10.540;2023-05-10T05:49:10;13.70;99.90
16102;DHT22;56411;52.964;10.540;2023-05-10T05:51:37;13.80;99.90
16102;DHT22;56411;52.964;10.540;2023-05-10T05:54:04;13.90;99.90
16102;DHT22;56411;52.964;10.540;2023-05-10T05:56:31;14.00;99.90
16102;DHT22;56411;52.964;10.540;2023-05-10T05:58:59;14.10;99.90
16102;DHT22;56411;52.964;10.540;2023-05-10T06:01:27;14.30;99.90
16102;DHT22;56411;52.964;10.540;2023-05-10T06:03:54;14.30;99.90
16102;DHT22;56411;52.964;10.540;2023-05-10T06:06:21;14.50;99.90
16102;DHT22;56411;52.964;10.540;2023-05-10T06:08:48;14.50;99.90
16102;DHT22;56411;52.964;10.540;2023-05-10T06:11:15;14.60;99.90
16102;DHT22;56411;52.964;10.540;2023-05-10T06:13:42;14.70;99.90
16102;DHT22;56411;52.964;10.540;2023-05-10T06:16:10;14.80;99.90
16102;DHT22;56411;52.964;10.540;2023-05-10T06:18:39;14.90;99.90
16102;DHT22;56411;52.964;10.540;2023-05-10T06:21:06;15.10;99.90
16102;DHT22;56411;52.964;10.540;2023-05-10T06:23:33;15.20;99.90
16102;DHT22;56411;52.964;10.540;2023-05-10T06:26:01;15.30;99.90
16102;DHT22;56411;52.964;10.540;2023-05-10T06:28:28;15.40;99.90
16102;DHT22;56411;52.964;10.540;2023-05-10T06:30:56;15.60;99.90
16102;DHT22;56411;52.964;10.540;2023-05-10T06:33:23;15.60;99.90
16102;DHT22;56411;52.964;10.540;2023-05-10T06:35:52;15.80;99.90
16102;DHT22;56411;52.964;10.540;2023-05-10T06:38:19;15.90;99.90
16102;DHT22;56411;52.964;10.540;2023-05-10T06:40:46;16.00;99.90
16102;DHT22;56411;52.964;10.540;2023-05-10T06:43:13;16.00;99.90
16102;DHT22;56411;52.964;10.540;2023-05-10T06:45:40;16.20;99.90
16102;DHT22;56411;52.964;10.540;2023-05-10T06:48:07;16.30;99.90
16102;DHT22;56411;52.964;10.540;2023-05-10T06:50:35;16.20;99.90
16102;DHT22;56411;52.964;10.540;2023-05-10T06:53:03;16.20;99.90
16102;DHT22;56411;52.964;10.540;2023-05-10T06:55:30;16.30;99.90
16102;DHT22;56411;52.964;10.540;2023-05-10T06:57:57;16.30;99.90
16102;DHT22;56411;52.964;10.540;2023-05-10T07:00:24;16.40;99.90
16102;DHT22;56411;52.964;10.540;2023-05-10T07:02:51;16.40;99.90
16102;DHT22;56411;52.964;10.540;2023-05-10T07:05:18;16.30;99.90
16102;DHT22;56411;52.964;10.540;2023-05-10T07:07:45;16.40;99.90
16102;DHT22;56411;52.964;10.540;2023-05-10T07:10:14;16.50;99.90
16102;DHT22;56411;52.964;10.540;2023-05-10T07:12:41;16.50;99.90
16102;DHT22;56411;52.964;10.540;2023-05-10T07:15:09;16.50;99.90
16102;DHT22;56411;52.964;10.540;2023-05-10T07:17:36;16.50;99.90
16102;DHT22;56411;52.964;10.540;2023-05-10T07:20:04;16.50;99.90
16102;DHT22;56411;52.964;10.540;2023-05-10T07:22:31;16.60;99.90
16102;DHT22;56411;52.964;10.540;2023-05-10T07:24:58;16.60;99.90
16102;DHT22;56411;52.964;10.540;2023-05-10T07:27:26;16.60;99.90
16102;DHT22;56411;52.964;10.540;2023-05-10T07:29:53;16.70;99.90
16102;DHT22;56411;52.964;10.540;2023-05-10T07:32:22;16.60;99.90
16102;DHT22;56411;52.964;10.540;2023-05-10T07:34:49;16.80;99.90
16102;DHT22;56411;52.964;10.540;2023-05-10T07:37:16;17.00;99.90
16102;DHT22;56411;52.964;10.540;2023-05-10T07:39:43;17.20;99.90
16102;DHT22;56411;52.964;10.540;2023-05-10T07:42:10;17.30;99.90
16102;DHT22;56411;52.964;10.540;2023-05-10T07:44:38;17.40;99.90
16102;DHT22;56411;52.964;10.540;2023-05-10T07:47:05;17.60;99.90
16102;DHT22;56411;52.964;10.540;2023-05-10T07:49:32;17.70;99.90
16102;DHT22;56411;52.964;10.540;2023-05-10T07:51:59;17.60;99.90
16102;DHT22;56411;52.964;10.540;2023-05-10T07:54:26;17.60;99.90
16102;DHT22;56411;52.964;10.540;2023-05-10T07:56:53;17.50;99.90
16102;DHT22;56411;52.964;10.540;2023-05-10T07:59:21;17.30;99.90
16102;DHT22;56411;52.964;10.540;2023-05-10T08:01:50;17.30;99.90
16102;DHT22;56411;52.964;10.540;2023-05-10T08:04:17;17.30;99.90
16102;DHT22;56411;52.964;10.540;2023-05-10T08:06:44;17.20;99.90
16102;DHT22;56411;52.964;10.540;2023-05-10T08:09:11;17.20;99.90
16102;DHT22;56411;52.964;10.540;2023-05-10T08:11:38;16.90;99.90
16102;DHT22;56411;52.964;10.540;2023-05-10T08:14:05;16.60;99.90
16102;DHT22;56411;52.964;10.540;2023-05-10T08:16:32;16.60;99.90
16102;DHT22;56411;52.964;10.540;2023-05-10T08:19:01;16.70;99.90
16102;DHT22;56411;52.964;10.540;2023-05-10T08:21:28;16.70;99.90
16102;DHT22;56411;52.964;10.540;2023-05-10T08:23:56;16.70;99.90
16102;DHT22;56411;52.964;10.540;2023-05-10T08:26:23;16.70;99.90
16102;DHT22;56411;52.964;10.540;2023-05-10T08:28:51;16.70;99.90
16102;DHT22;56411;52.964;10.540;2023-05-10T08:31:18;16.70;99.90
16102;DHT22;56411;52.964;10.540;2023-05-10T08:33:45;16.90;99.90
16102;DHT22;56411;52.964;10.540;2023-05-10T08:36:13;16.80;99.90
16102;DHT22;56411;52.964;10.540;2023-05-10T08:38:45;16.90;99.90
16102;DHT22;56411;52.964;10.540;2023-05-10T08:41:12;17.00;99.90
16102;DHT22;56411;52.964;10.540;2023-05-10T08:43:39;17.10;99.90
16102;DHT22;56411;52.964;10.540;2023-05-10T08:46:16;17.00;99.90
16102;DHT22;56411;52.964;10.540;2023-05-10T08:48:46;16.80;99.90
16102;DHT22;56411;52.964;10.540;2023-05-10T08:51:18;16.80;99.90
16102;DHT22;56411;52.964;10.540;2023-05-10T08:53:47;16.70;99.90
16102;DHT22;56411;52.964;10.540;2023-05-10T08:56:15;16.80;99.90
16102;DHT22;56411;52.964;10.540;2023-05-10T08:58:43;16.80;99.90
16102;DHT22;56411;52.964;10.540;2023-05-10T09:01:11;17.00;99.90
16102;DHT22;56411;52.964;10.540;2023-05-10T09:03:39;17.20;99.90
16102;DHT22;56411;52.964;10.540;2023-05-10T09:06:06;17.20;99.90
16102;DHT22;56411;52.964;10.540;2023-05-10T09:08:37;17.20;99.90
16102;DHT22;56411;52.964;10.540;2023-05-10T09:11:05;17.20;99.90
16102;DHT22;56411;52.964;10.540;2023-05-10T09:13:32;17.20;99.90
16102;DHT22;56411;52.964;10.540;2023-05-10T09:16:00;17.20;99.90
16102;DHT22;56411;52.964;10.540;2023-05-10T09:18:28;17.30;99.90
16102;DHT22;56411;52.964;10.540;2023-05-10T09:20:55;17.20;99.90
16102;DHT22;56411;52.964;10.540;2023-05-10T09:23:22;17.10;99.90
16102;DHT22;56411;52.964;10.540;2023-05-10T09:26:03;17.20;99.90
16102;DHT22;56411;52.964;10.540;2023-05-10T09:28:32;17.20;99.90
16102;DHT22;56411;52.964;10.540;2023-05-10T09:30:59;17.20;99.90
16102;DHT22;56411;52.964;10.540;2023-05-10T09:33:27;17.10;99.90
16102;DHT22;56411;52.964;10.540;2023-05-10T09:35:54;17.10;99.90
16102;DHT22;56411;52.964;10.540;2023-05-10T09:38:20;17.10;99.90
16102;DHT22;56411;52.964;10.540;2023-05-10T09:40:51;17.10;99.90
16102;DHT22;56411;52.964;10.540;2023-05-10T09:43:21;17.00;99.90
16102;DHT22;56411;52.964;10.540;2023-05-10T09:45:48;16.70;99.90
16102;DHT22;56411;52.964;10.540;2023-05-10T09:48:16;16.00;99.90
16102;DHT22;56411;52.964;10.540;2023-05-10T09:50:43;15.60;99.90
16102;DHT22;56411;52.964;10.540;2023-05-10T09:53:14;14.90;99.90
16102;DHT22;56411;52.964;10.540;2023-05-10T09:55:43;14.40;99.90
16102;DHT22;56411;52.964;10.540;2023-05-10T09:58:12;13.90;99.90
16102;DHT22;56411;52.964;10.540;2023-05-10T10:00:44;13.60;99.90
16102;DHT22;56411;52.964;10.540;2023-05-10T10:03:14;13.40;99.90
16102;DHT22;56411;52.964;10.540;2023-05-10T10:05:41;13.30;99.90
16102;DHT22;56411;52.964;10.540;2023-05-10T10:08:09;13.20;99.90
16102;DHT22;56411;52.964;10.540;2023-05-10T10:10:36;13.20;99.90
16102;DHT22;56411;52.964;10.540;2023-05-10T10:13:06;13.10;99.90
16102;DHT22;56411;52.964;10.540;2023-05-10T10:15:33;13.20;99.90
16102;DHT22;56411;52.964;10.540;2023-05-10T10:18:02;13.10;99.90
16102;DHT22;56411;52.964;10.540;2023-05-10T10:20:30;13.10;99.90
16102;DHT22;56411;52.964;10.540;2023-05-10T10:22:57;13.10;99.90
16102;DHT22;56411;52.964;10.540;2023-05-10T10:25:25;13.20;99.90
16102;DHT22;56411;52.964;10.540;2023-05-10T10:28:03;13.20;99.90
16102;DHT22;56411;52.964;10.540;2023-05-10T10:30:39;13.30;99.90
16102;DHT22;56411;52.964;10.540;2023-05-10T10:33:36;13.40;99.90
16102;DHT22;56411;52.964;10.540;2023-05-10T10:36:06;13.50;99.90
16102;DHT22;56411;52.964;10.540;2023-05-10T10:38:37;13.50;99.90
16102;DHT22;56411;52.964;10.540;2023-05-10T10:41:30;13.60;99.90
16102;DHT22;56411;52.964;10.540;2023-05-10T10:44:23;13.80;99.90
16102;DHT22;56411;52.964;10.540;2023-05-10T10:47:05;13.80;99.90
16102;DHT22;56411;52.964;10.540;2023-05-10T10:49:38;14.00;99.90
16102;DHT22;56411;52.964;10.540;2023-05-10T10:52:22;14.10;99.90
16102;DHT22;56411;52.964;10.540;2023-05-10T10:54:53;14.30;99.90
16102;DHT22;56411;52.964;10.540;2023-05-10T10:57:21;14.40;99.90
16102;DHT22;56411;52.964;10.540;2023-05-10T10:59:48;14.40;99.90
16102;DHT22;56411;52.964;10.540;2023-05-10T11:02:33;14.50;99.90
16102;DHT22;56411;52.964;10.540;2023-05-10T11:08:14;14.60;99.90
16102;DHT22;56411;52.964;10.540;2023-05-10T11:10:50;14.70;99.90
16102;DHT22;56411;52.964;10.540;2023-05-10T11:13:27;14.80;99.90
16102;DHT22;56411;52.964;10.540;2023-05-10T11:15:56;14.90;99.90
16102;DHT22;56411;52.964;10.540;2023-05-10T11:18:25;14.90;99.90
16102;DHT22;56411;52.964;10.540;2023-05-10T11:20:56;14.80;99.90
16102;DHT22;56411;52.964;10.540;2023-05-10T11:23:30;14.80;99.90
16102;DHT22;56411;52.964;10.540;2023-05-10T11:25:58;14.80;99.90
16102;DHT22;56411;52.964;10.540;2023-05-10T11:28:26;14.80;99.90
16102;DHT22;56411;52.964;10.540;2023-05-10T11:30:54;14.90;99.90
16102;DHT22;56411;52.964;10.540;2023-05-10T11:33:21;15.00;99.90
16102;DHT22;56411;52.964;10.540;2023-05-10T11:35:48;15.20;99.90
16102;DHT22;56411;52.964;10.540;2023-05-10T11:38:15;15.30;99.90
16102;DHT22;56411;52.964;10.540;2023-05-10T11:40:44;15.20;99.90
16102;DHT22;56411;52.964;10.540;2023-05-10T11:43:11;15.40;99.90
16102;DHT22;56411;52.964;10.540;2023-05-10T11:45:38;15.50;99.90
16102;DHT22;56411;52.964;10.540;2023-05-10T11:48:06;15.60;99.90
16102;DHT22;56411;52.964;10.540;2023-05-10T11:50:33;15.80;99.90
16102;DHT22;56411;52.964;10.540;2023-05-10T11:53:00;15.80;99.90
16102;DHT22;56411;52.964;10.540;2023-05-10T11:55:28;15.60;99.90
16102;DHT22;56411;52.964;10.540;2023-05-10T11:58:01;15.70;99.90
16102;DHT22;56411;52.964;10.540;2023-05-10T12:00:29;15.70;99.90
16102;DHT22;56411;52.964;10.540;2023-05-10T12:02:57;15.40;99.90
16102;DHT22;56411;52.964;10.540;2023-05-10T12:05:24;15.10;99.90
16102;DHT22;56411;52.964;10.540;2023-05-10T12:07:51;15.00;99.90
16102;DHT22;56411;52.964;10.540;2023-05-10T12:10:25;15.10;99.90
16102;DHT22;56411;52.964;10.540;2023-05-10T12:12:53;15.20;99.90
16102;DHT22;56411;52.964;10.540;2023-05-10T12:15:23;15.30;99.90
16102;DHT22;56411;52.964;10.540;2023-05-10T12:17:50;15.20;99.90
16102;DHT22;56411;52.964;10.540;2023-05-10T12:20:18;15.20;99.90
16102;DHT22;56411;52.964;10.540;2023-05-10T12:22:48;14.90;99.90
16102;DHT22;56411;52.964;10.540;2023-05-10T12:25:16;14.80;99.90
16102;DHT22;56411;52.964;10.540;2023-05-10T12:27:51;14.90;99.90
16102;DHT22;56411;52.964;10.540;2023-05-10T12:30:23;15.10;99.90
16102;DHT22;56411;52.964;10.540;2023-05-10T12:32:51;15.00;99.90
16102;DHT22;56411;52.964;10.540;2023-05-10T12:35:19;15.00;99.90
16102;DHT22;56411;52.964;10.540;2023-05-10T12:37:47;15.30;99.90
16102;DHT22;56411;52.964;10.540;2023-05-10T12:40:15;15.40;99.90
16102;DHT22;56411;52.964;10.540;2023-05-10T12:42:42;15.60;99.90
16102;DHT22;56411;52.964;10.540;2023-05-10T12:45:11;15.90;99.90
16102;DHT22;56411;52.964;10.540;2023-05-10T12:47:39;16.20;99.90
16102;DHT22;56411;52.964;10.540;2023-05-10T12:50:07;16.30;99.90
16102;DHT22;56411;52.964;10.540;2023-05-10T12:52:34;16.20;99.90
16102;DHT22;56411;52.964;10.540;2023-05-10T12:55:01;16.30;99.90
16102;DHT22;56411;52.964;10.540;2023-05-10T12:57:29;16.20;99.90
16102;DHT22;56411;52.964;10.540;2023-05-10T12:59:56;16.30;99.90
16102;DHT22;56411;52.964;10.540;2023-05-10T13:02:23;16.50;99.90
16102;DHT22;56411;52.964;10.540;2023-05-10T13:04:52;16.60;99.90
16102;DHT22;56411;52.964;10.540;2023-05-10T13:07:19;16.60;99.90
16102;DHT22;56411;52.964;10.540;2023-05-10T13:09:46;16.50;99.90
16102;DHT22;56411;52.964;10.540;2023-05-10T13:12:13;16.60;99.90
16102;DHT22;56411;52.964;10.540;2023-05-10T13:14:40;16.50;99.90
16102;DHT22;56411;52.964;10.540;2023-05-10T13:17:07;16.60;99.90
16102;DHT22;56411;52.964;10.540;2023-05-10T13:19:34;16.80;99.90
16102;DHT22;56411;52.964;10.540;2023-05-10T13:22:03;16.70;99.90
16102;DHT22;56411;52.964;10.540;2023-05-10T13:24:30;16.40;99.90
16102;DHT22;56411;52.964;10.540;2023-05-10T13:26:58;16.30;99.90
16102;DHT22;56411;52.964;10.540;2023-05-10T13:29:25;16.60;99.90
16102;DHT22;56411;52.964;10.540;2023-05-10T13:31:52;16.60;99.90
16102;DHT22;56411;52.964;10.540;2023-05-10T13:34:19;16.50;99.90
16102;DHT22;56411;52.964;10.540;2023-05-10T13:36:47;16.50;99.90
16102;DHT22;56411;52.964;10.540;2023-05-10T13:39:16;16.60;99.90
16102;DHT22;56411;52.964;10.540;2023-05-10T13:41:43;16.70;99.90
16102;DHT22;56411;52.964;10.540;2023-05-10T13:44:12;16.90;99.90
16102;DHT22;56411;52.964;10.540;2023-05-10T13:46:39;17.40;99.90
16102;DHT22;56411;52.964;10.540;2023-05-10T13:49:09;17.70;99.90
16102;DHT22;56411;52.964;10.540;2023-05-10T13:51:36;18.00;99.90
16102;DHT22;56411;52.964;10.540;2023-05-10T13:54:03;18.50;99.90
16102;DHT22;56411;52.964;10.540;2023-05-10T13:56:33;19.00;99.90
16102;DHT22;56411;52.964;10.540;2023-05-10T13:59:00;19.20;99.90
16102;DHT22;56411;52.964;10.540;2023-05-10T14:01:27;19.30;99.90
16102;DHT22;56411;52.964;10.540;2023-05-10T14:03:54;19.10;99.90
16102;DHT22;56411;52.964;10.540;2023-05-10T14:06:21;19.20;99.90
16102;DHT22;56411;52.964;10.540;2023-05-10T14:08:48;19.30;99.90
16102;DHT22;56411;52.964;10.540;2023-05-10T14:11:15;19.40;99.90
16102;DHT22;56411;52.964;10.540;2023-05-10T14:13:44;19.60;99.90
16102;DHT22;56411;52.964;10.540;2023-05-10T14:16:11;19.90;99.90
16102;DHT22;56411;52.964;10.540;2023-05-10T14:18:40;19.70;99.90
16102;DHT22;56411;52.964;10.540;2023-05-10T14:21:07;19.80;99.90
16102;DHT22;56411;52.964;10.540;2023-05-10T14:23:34;20.00;99.90
16102;DHT22;56411;52.964;10.540;2023-05-10T14:26:01;20.00;99.90
16102;DHT22;56411;52.964;10.540;2023-05-10T14:28:28;20.40;99.90
16102;DHT22;56411;52.964;10.540;2023-05-10T14:30:57;20.60;99.90
16102;DHT22;56411;52.964;10.540;2023-05-10T14:33:24;20.80;99.90
16102;DHT22;56411;52.964;10.540;2023-05-10T14:35:51;21.00;99.90
16102;DHT22;56411;52.964;10.540;2023-05-10T14:38:18;21.00;99.90
16102;DHT22;56411;52.964;10.540;2023-05-10T14:40:45;20.90;99.90
16102;DHT22;56411;52.964;10.540;2023-05-10T14:43:12;20.90;99.90
16102;DHT22;56411;52.964;10.540;2023-05-10T14:45:39;20.90;99.90
16102;DHT22;56411;52.964;10.540;2023-05-10T14:48:08;20.60;99.90
16102;DHT22;56411;52.964;10.540;2023-05-10T14:50:37;20.60;99.90
16102;DHT22;56411;52.964;10.540;2023-05-10T14:53:05;20.50;99.90
16102;DHT22;56411;52.964;10.540;2023-05-10T14:55:32;20.40;99.90
16102;DHT22;56411;52.964;10.540;2023-05-10T14:58:00;20.80;99.90
16102;DHT22;56411;52.964;10.540;2023-05-10T15:00:29;21.00;99.90
16102;DHT22;56411;52.964;10.540;2023-05-10T15:02:57;20.80;99.90
16102;DHT22;56411;52.964;10.540;2023-05-10T15:05:26;20.90;99.90
16102;DHT22;56411;52.964;10.540;2023-05-10T15:07:53;20.90;99.90
16102;DHT22;56411;52.964;10.540;2023-05-10T15:10:20;21.40;99.90
16102;DHT22;56411;52.964;10.540;2023-05-10T15:12:47;21.40;99.90
16102;DHT22;56411;52.964;10.540;2023-05-10T15:15:14;21.30;99.90
16102;DHT22;56411;52.964;10.540;2023-05-10T15:17:41;21.50;99.90
16102;DHT22;56411;52.964;10.540;2023-05-10T15:20:09;21.10;99.90
16102;DHT22;56411;52.964;10.540;2023-05-10T15:22:37;20.90;99.90
16102;DHT22;56411;52.964;10.540;2023-05-10T15:25:05;20.70;99.90
16102;DHT22;56411;52.964;10.540;2023-05-10T15:27:32;20.70;99.90
16102;DHT22;56411;52.964;10.540;2023-05-10T15:30:00;20.70;99.90